createdAt,value
2022-11-17T00:01:20.916Z,15.00
2022-11-17T00:03:49.234Z,19.10
2022-11-17T00:06:19.762Z,15.00
2022-11-17T00:08:48.228Z,13.80
2022-11-17T00:11:15.484Z,12.60
2022-11-17T00:14:00.759Z,13.50
2022-11-17T00:16:28.007Z,13.30
2022-11-17T00:19:13.726Z,13.90
2022-11-17T00:21:40.851Z,13.70
2022-11-17T00:24:07.745Z,15.40
2022-11-17T00:26:59.149Z,13.50
2022-11-17T00:29:25.960Z,17.60
2022-11-17T00:32:11.751Z,15.90
2022-11-17T00:34:38.597Z,14.80
2022-11-17T00:37:06.564Z,14.90
2022-11-17T00:39:33.813Z,14.40
2022-11-17T00:42:00.783Z,15.00
2022-11-17T00:44:28.189Z,13.80
2022-11-17T00:46:54.866Z,13.90
2022-11-17T00:49:25.228Z,14.60
2022-11-17T00:51:53.060Z,13.50
2022-11-17T00:54:20.800Z,12.80
2022-11-17T00:56:47.995Z,14.30
2022-11-17T00:59:15.641Z,13.50
2022-11-17T01:01:43.650Z,13.60
2022-11-17T01:04:13.221Z,12.90
2022-11-17T01:06:45.570Z,14.60
2022-11-17T01:09:14.153Z,15.60
2022-11-17T01:11:42.255Z,14.60
2022-11-17T01:14:18.010Z,13.90
2022-11-17T01:16:45.164Z,14.60
2022-11-17T01:19:13.475Z,15.30
2022-11-17T01:21:40.281Z,14.70
2022-11-17T01:24:10.641Z,13.90
2022-11-17T01:26:38.998Z,14.50
2022-11-17T01:29:06.953Z,14.80
2022-11-17T01:31:37.441Z,17.30
2022-11-17T01:34:05.156Z,18.70
2022-11-17T01:36:55.513Z,15.80
2022-11-17T01:39:24.887Z,14.70
2022-11-17T01:41:52.722Z,14.60
2022-11-17T01:44:48.612Z,14.10
2022-11-17T01:47:30.392Z,13.50
2022-11-17T01:50:32.309Z,14.00
2022-11-17T01:53:02.528Z,13.90
2022-11-17T01:55:42.282Z,13.80
2022-11-17T01:58:33.220Z,13.10
2022-11-17T02:01:00.133Z,14.30
2022-11-17T02:03:28.207Z,17.50
2022-11-17T02:06:07.374Z,18.80
2022-11-17T02:08:38.168Z,17.50
2022-11-17T02:11:11.294Z,15.80
2022-11-17T02:13:40.142Z,17.70
2022-11-17T02:16:12.458Z,14.80
2022-11-17T02:18:41.356Z,14.20
2022-11-17T02:21:08.155Z,22.50
2022-11-17T02:24:10.756Z,21.80
2022-11-17T02:26:51.629Z,15.30
2022-11-17T02:30:01.073Z,15.60
2022-11-17T02:32:31.602Z,16.40
2022-11-17T02:35:11.555Z,13.50
2022-11-17T02:38:00.104Z,13.40
2022-11-17T02:40:49.937Z,13.00
2022-11-17T02:43:39.904Z,12.70
2022-11-17T02:46:10.998Z,11.90
2022-11-17T02:48:47.286Z,11.30
2022-11-17T02:51:21.200Z,12.20
2022-11-17T02:53:54.422Z,12.70
2022-11-17T02:56:21.543Z,13.10
2022-11-17T02:58:56.987Z,13.10
2022-11-17T03:01:39.291Z,12.90
2022-11-17T03:04:30.931Z,14.80
2022-11-17T03:06:57.623Z,12.40
2022-11-17T03:09:46.422Z,10.80
2022-11-17T03:12:20.394Z,10.60
2022-11-17T03:14:52.489Z,9.00
2022-11-17T03:17:31.172Z,8.90
2022-11-17T03:20:07.857Z,8.20
2022-11-17T03:23:00.958Z,8.70
2022-11-17T03:25:32.723Z,8.70
2022-11-17T03:28:05.643Z,7.70
2022-11-17T03:30:37.692Z,6.80
2022-11-17T03:33:14.758Z,7.70
2022-11-17T03:35:50.819Z,6.10
2022-11-17T03:38:20.323Z,7.00
2022-11-17T03:40:50.651Z,6.30
2022-11-17T03:43:20.055Z,6.30
2022-11-17T03:45:50.996Z,7.60
2022-11-17T03:48:43.143Z,12.20
2022-11-17T03:51:39.470Z,16.80
2022-11-17T03:54:07.978Z,11.50
2022-11-17T03:56:54.006Z,6.20
2022-11-17T03:59:29.927Z,7.10
2022-11-17T04:01:57.127Z,7.00
2022-11-17T04:04:24.110Z,7.50
2022-11-17T04:06:52.583Z,7.20
2022-11-17T04:09:24.192Z,5.30
2022-11-17T04:12:10.604Z,6.50
2022-11-17T04:14:56.026Z,7.00
2022-11-17T04:17:22.984Z,6.30
2022-11-17T04:19:49.717Z,9.50
2022-11-17T04:22:16.600Z,23.20
2022-11-17T04:24:43.507Z,7.30
2022-11-17T04:27:28.952Z,7.00
2022-11-17T04:29:55.628Z,7.00
2022-11-17T04:32:22.331Z,6.10
2022-11-17T04:34:49.026Z,9.10
2022-11-17T04:37:18.785Z,11.30
2022-11-17T04:39:45.659Z,10.30
2022-11-17T04:42:12.618Z,11.80
2022-11-17T04:44:39.535Z,13.80
2022-11-17T04:47:06.618Z,11.90
2022-11-17T04:49:33.869Z,14.10
2022-11-17T04:52:00.983Z,15.60
2022-11-17T04:54:28.170Z,17.90
2022-11-17T04:56:56.210Z,28.50
2022-11-17T04:59:23.524Z,16.60
2022-11-17T05:01:50.331Z,15.70
2022-11-17T05:04:39.545Z,13.70
2022-11-17T05:07:07.932Z,26.50
2022-11-17T05:09:34.883Z,13.60
2022-11-17T05:12:20.938Z,14.00
2022-11-17T05:14:49.552Z,17.60
2022-11-17T05:17:16.774Z,12.50
2022-11-17T05:19:47.813Z,17.60
2022-11-17T05:22:40.291Z,14.20
2022-11-17T05:25:08.239Z,12.70
2022-11-17T05:27:36.133Z,11.30
2022-11-17T05:30:05.337Z,11.00
2022-11-17T05:32:32.067Z,19.10
2022-11-17T05:34:58.906Z,16.40
2022-11-17T05:37:25.553Z,16.10
2022-11-17T05:39:52.307Z,16.60
2022-11-17T05:42:19.033Z,15.30
2022-11-17T05:44:47.868Z,16.00
2022-11-17T05:47:14.699Z,18.00
2022-11-17T05:49:41.701Z,17.30
2022-11-17T05:52:08.854Z,20.70
2022-11-17T05:54:35.900Z,34.80
2022-11-17T05:57:11.563Z,34.80
2022-11-17T05:59:48.339Z,19.20
2022-11-17T06:02:23.465Z,15.40
2022-11-17T06:04:51.345Z,16.10
2022-11-17T06:07:18.920Z,16.20
2022-11-17T06:09:46.355Z,17.40
2022-11-17T06:12:14.738Z,19.00
2022-11-17T06:14:41.985Z,16.30
2022-11-17T06:17:23.556Z,16.10
2022-11-17T06:20:14.307Z,19.00
2022-11-17T06:22:45.431Z,16.90
2022-11-17T06:25:18.020Z,21.30
2022-11-17T06:27:47.210Z,21.80
2022-11-17T06:30:14.091Z,18.30
2022-11-17T06:32:43.357Z,21.10
2022-11-17T06:35:12.821Z,17.40
2022-11-17T06:37:39.812Z,18.80
2022-11-17T06:40:07.782Z,20.10
2022-11-17T06:42:53.104Z,21.50
2022-11-17T06:45:20.090Z,20.50
2022-11-17T06:47:47.117Z,31.50
2022-11-17T06:50:14.074Z,21.90
2022-11-17T06:52:41.171Z,15.00
2022-11-17T06:55:08.229Z,11.30
2022-11-17T06:57:35.465Z,16.40
2022-11-17T07:00:05.531Z,14.00
2022-11-17T07:02:32.778Z,12.60
2022-11-17T07:04:59.704Z,12.80
2022-11-17T07:07:27.104Z,11.40
2022-11-17T07:09:53.990Z,6.70
2022-11-17T07:12:20.856Z,7.70
2022-11-17T07:14:47.682Z,6.20
2022-11-17T07:17:14.628Z,7.20
2022-11-17T07:19:41.821Z,5.40
2022-11-17T07:22:08.727Z,5.40
2022-11-17T07:24:35.691Z,10.90
2022-11-17T07:27:04.258Z,13.80
2022-11-17T07:29:31.204Z,9.60
2022-11-17T07:31:57.986Z,8.70
2022-11-17T07:34:24.817Z,10.60
2022-11-17T07:36:51.637Z,10.80
2022-11-17T07:39:21.789Z,5.20
2022-11-17T07:41:49.216Z,4.00
2022-11-17T07:44:16.258Z,3.20
2022-11-17T07:46:43.143Z,4.30
2022-11-17T07:49:10.181Z,3.40
2022-11-17T07:51:37.328Z,3.80
2022-11-17T07:54:04.362Z,3.50
2022-11-17T07:56:31.411Z,5.40
2022-11-17T07:58:58.462Z,2.90
2022-11-17T08:01:26.932Z,3.50
2022-11-17T08:03:53.948Z,2.20
2022-11-17T08:06:22.270Z,2.60
2022-11-17T08:08:49.629Z,5.50
2022-11-17T08:11:17.633Z,2.20
2022-11-17T08:13:44.751Z,1.90
2022-11-17T08:16:12.370Z,4.10
2022-11-17T08:18:39.694Z,2.50
2022-11-17T08:21:13.281Z,2.20
2022-11-17T08:23:41.449Z,5.10
2022-11-17T08:26:10.545Z,4.60
2022-11-17T08:28:37.863Z,2.70
2022-11-17T08:31:06.693Z,3.90
2022-11-17T08:33:34.074Z,2.60
2022-11-17T08:36:02.327Z,2.50
2022-11-17T08:38:30.168Z,1.50
2022-11-17T08:41:08.080Z,2.30
2022-11-17T08:43:35.411Z,3.90
2022-11-17T08:46:02.527Z,1.50
2022-11-17T08:48:31.102Z,2.40
2022-11-17T08:50:58.562Z,3.30
2022-11-17T08:53:25.518Z,2.40
2022-11-17T08:55:52.378Z,3.50
2022-11-17T08:58:19.185Z,4.20
2022-11-17T09:00:47.206Z,1.70
2022-11-17T09:03:14.544Z,2.10
2022-11-17T09:05:44.751Z,2.10
2022-11-17T09:08:43.376Z,3.00
2022-11-17T09:11:07.402Z,2.00
2022-11-17T09:13:34.679Z,2.80
2022-11-17T09:16:06.518Z,1.70
2022-11-17T09:18:36.416Z,2.60
2022-11-17T09:21:07.207Z,1.50
2022-11-17T09:23:34.859Z,3.70
2022-11-17T09:26:07.619Z,2.00
2022-11-17T09:28:34.834Z,2.60
2022-11-17T09:31:17.377Z,6.00
2022-11-17T09:33:45.361Z,48.70
2022-11-17T09:36:14.586Z,10.70
2022-11-17T09:43:29.665Z,15.30
2022-11-17T09:46:25.039Z,2.50
2022-11-17T09:49:11.621Z,11.60
2022-11-17T09:51:42.182Z,2.00
2022-11-17T09:54:22.801Z,6.70
2022-11-17T09:56:50.963Z,7.50
2022-11-17T09:59:21.002Z,7.30
2022-11-17T10:01:48.182Z,8.50
2022-11-17T10:04:16.410Z,6.70
2022-11-17T10:06:49.094Z,6.60
2022-11-17T10:09:40.931Z,5.60
2022-11-17T10:12:14.014Z,3.70
2022-11-17T10:14:41.885Z,4.30
2022-11-17T10:17:10.101Z,3.40
2022-11-17T10:19:38.256Z,6.60
2022-11-17T10:22:05.292Z,8.30
2022-11-17T10:24:50.196Z,4.20
2022-11-17T10:27:17.016Z,6.50
2022-11-17T10:30:04.832Z,5.90
2022-11-17T10:32:35.427Z,7.50
2022-11-17T10:35:23.869Z,6.10
2022-11-17T10:38:00.693Z,8.20
2022-11-17T10:40:31.354Z,5.60
2022-11-17T10:43:01.771Z,4.20
2022-11-17T10:45:29.426Z,7.40
2022-11-17T10:48:18.709Z,7.40
2022-11-17T10:51:00.090Z,8.50
2022-11-17T10:53:28.665Z,6.50
2022-11-17T10:56:05.745Z,8.80
2022-11-17T10:58:59.732Z,7.00
2022-11-17T11:01:35.546Z,4.30
2022-11-17T11:04:04.991Z,4.90
2022-11-17T11:06:34.947Z,2.40
2022-11-17T11:09:10.935Z,2.50
2022-11-17T11:11:48.518Z,3.00
2022-11-17T11:14:18.789Z,3.80
2022-11-17T11:16:48.459Z,3.40
2022-11-17T11:19:17.330Z,8.00
2022-11-17T11:22:06.900Z,8.20
2022-11-17T11:25:02.859Z,3.10
2022-11-17T11:27:53.939Z,2.30
2022-11-17T11:30:20.856Z,3.30
2022-11-17T11:32:57.135Z,4.00
2022-11-17T11:35:42.415Z,3.10
2022-11-17T11:38:24.500Z,2.80
2022-11-17T11:41:25.961Z,2.90
2022-11-17T11:44:00.440Z,3.70
2022-11-17T11:46:33.359Z,3.10
2022-11-17T11:49:15.163Z,2.80
2022-11-17T11:51:43.134Z,4.80
2022-11-17T11:54:23.853Z,4.70
2022-11-17T11:56:51.075Z,2.40
2022-11-17T11:59:23.740Z,5.20
2022-11-17T12:02:12.096Z,4.00
2022-11-17T12:04:59.676Z,3.70
2022-11-17T12:07:35.528Z,2.80
2022-11-17T12:10:06.849Z,3.70
2022-11-17T12:12:38.277Z,3.40
2022-11-17T12:15:10.355Z,2.40
2022-11-17T12:17:56.440Z,5.70
2022-11-17T12:20:40.164Z,3.00
2022-11-17T12:23:17.169Z,3.00
2022-11-17T12:25:50.618Z,2.60
2022-11-17T12:28:40.867Z,2.60
2022-11-17T12:31:32.075Z,2.90
2022-11-17T12:33:59.019Z,4.20
2022-11-17T12:41:47.688Z,4.30
2022-11-17T12:44:36.748Z,3.20
2022-11-17T12:47:16.552Z,2.90
2022-11-17T12:49:47.877Z,2.30
2022-11-17T12:52:26.894Z,2.60
2022-11-17T12:55:04.097Z,2.30
2022-11-17T12:57:34.015Z,2.30
2022-11-17T13:00:30.041Z,2.00
2022-11-17T13:03:09.585Z,2.50
2022-11-17T13:05:37.762Z,3.00
2022-11-17T13:08:14.231Z,2.00
2022-11-17T13:10:41.300Z,2.00
2022-11-17T13:13:23.280Z,2.90
2022-11-17T13:15:55.985Z,3.90
2022-11-17T13:18:37.283Z,2.80
2022-11-17T13:21:14.943Z,2.30
2022-11-17T13:23:45.170Z,4.30
2022-11-17T13:26:29.624Z,4.00
2022-11-17T13:29:19.336Z,2.80
2022-11-17T13:31:46.359Z,2.30
2022-11-17T13:34:15.374Z,2.10
2022-11-17T13:37:00.444Z,2.40
2022-11-17T13:39:28.596Z,5.40
2022-11-17T13:41:57.684Z,4.70
2022-11-17T13:44:27.825Z,2.50
2022-11-17T13:46:55.488Z,2.90
2022-11-17T13:49:38.811Z,2.80
2022-11-17T13:52:29.791Z,1.50
2022-11-17T13:55:01.599Z,1.50
2022-11-17T13:57:29.662Z,1.80
2022-11-17T13:59:59.578Z,1.30
2022-11-17T14:02:29.146Z,1.90
2022-11-17T14:05:13.947Z,2.20
2022-11-17T14:07:42.936Z,2.60
2022-11-17T14:10:21.980Z,1.50
2022-11-17T14:13:01.210Z,1.90
2022-11-17T14:15:29.121Z,1.80
2022-11-17T14:17:59.402Z,1.40
2022-11-17T14:20:34.747Z,2.40
2022-11-17T14:23:16.749Z,2.40
2022-11-17T14:25:47.688Z,2.70
2022-11-17T14:28:17.515Z,3.60
2022-11-17T14:30:48.844Z,4.90
2022-11-17T14:33:16.201Z,6.60
2022-11-17T14:35:53.074Z,5.70
2022-11-17T14:38:20.951Z,6.20
2022-11-17T14:40:50.668Z,4.20
2022-11-17T14:43:21.508Z,3.10
2022-11-17T14:45:51.295Z,3.00
2022-11-17T14:48:19.885Z,3.10
2022-11-17T14:50:47.311Z,3.40
2022-11-17T14:53:14.426Z,3.80
2022-11-17T14:55:41.808Z,4.00
2022-11-17T14:58:09.640Z,4.30
2022-11-17T15:00:37.120Z,4.90
2022-11-17T15:03:04.399Z,6.40
2022-11-17T15:05:31.636Z,7.80
2022-11-17T15:07:58.451Z,8.00
2022-11-17T15:10:25.397Z,14.00
2022-11-17T15:12:52.250Z,9.50
2022-11-17T15:15:19.191Z,31.90
2022-11-17T15:17:46.958Z,14.70
2022-11-17T15:20:13.801Z,7.90
2022-11-17T15:22:40.852Z,10.50
2022-11-17T15:25:08.282Z,5.10
2022-11-17T15:27:35.051Z,12.60
2022-11-17T15:30:01.923Z,12.50
2022-11-17T15:32:29.201Z,39.80
2022-11-17T15:34:56.097Z,25.50
2022-11-17T15:37:22.941Z,30.10
2022-11-17T15:39:50.198Z,11.70
2022-11-17T15:42:17.221Z,22.60
2022-11-17T15:44:44.235Z,57.00
2022-11-17T15:47:11.069Z,27.50
2022-11-17T15:49:38.088Z,55.50
2022-11-17T15:52:06.879Z,26.10
2022-11-17T15:54:33.609Z,35.30
2022-11-17T15:57:02.307Z,29.80
2022-11-17T15:59:30.378Z,48.40
2022-11-17T16:01:58.249Z,45.80
2022-11-17T16:04:25.115Z,39.00
2022-11-17T16:06:52.262Z,40.60
2022-11-17T16:09:19.385Z,40.60
2022-11-17T16:11:47.346Z,34.50
2022-11-17T16:14:14.518Z,26.10
2022-11-17T16:16:41.605Z,21.90
2022-11-17T16:19:08.925Z,18.80
2022-11-17T16:21:35.772Z,13.70
2022-11-17T16:24:03.366Z,15.20
2022-11-17T16:26:30.495Z,16.80
2022-11-17T16:28:59.170Z,15.40
2022-11-17T16:31:29.629Z,13.90
2022-11-17T16:34:02.181Z,15.00
2022-11-17T16:36:35.849Z,17.30
2022-11-17T16:39:06.212Z,15.20
2022-11-17T16:41:36.199Z,30.90
2022-11-17T16:44:08.038Z,22.10
2022-11-17T16:46:36.061Z,18.80
2022-11-17T16:49:07.901Z,38.40
2022-11-17T16:51:34.871Z,29.50
2022-11-17T16:54:04.647Z,53.20
2022-11-17T16:56:33.069Z,39.30
2022-11-17T16:59:00.423Z,15.70
2022-11-17T17:01:29.997Z,13.40
2022-11-17T17:04:02.528Z,16.20
2022-11-17T17:06:30.888Z,11.10
2022-11-17T17:09:04.392Z,15.20
2022-11-17T17:11:32.884Z,18.30
2022-11-17T17:14:02.783Z,20.90
2022-11-17T17:16:31.788Z,16.10
2022-11-17T17:19:01.398Z,16.40
2022-11-17T17:21:29.081Z,15.30
2022-11-17T17:23:56.825Z,13.50
2022-11-17T17:26:27.006Z,11.40
2022-11-17T17:28:56.883Z,10.70
2022-11-17T17:31:25.022Z,11.50
2022-11-17T17:33:56.274Z,11.80
2022-11-17T17:36:24.407Z,12.80
2022-11-17T17:38:56.139Z,18.20
2022-11-17T17:41:25.885Z,17.30
2022-11-17T17:44:01.485Z,16.90
2022-11-17T17:46:29.779Z,14.70
2022-11-17T17:48:57.836Z,12.70
2022-11-17T17:51:28.756Z,12.30
2022-11-17T17:54:00.113Z,18.70
2022-11-17T17:56:27.788Z,18.90
2022-11-17T17:58:55.052Z,20.90
2022-11-17T18:01:25.218Z,26.10
2022-11-17T18:03:59.800Z,41.50
2022-11-17T18:06:27.864Z,20.80
2022-11-17T18:08:54.914Z,13.90
2022-11-17T18:11:22.187Z,17.50
2022-11-17T18:13:51.252Z,19.80
2022-11-17T18:16:18.033Z,11.20
2022-11-17T18:18:45.772Z,14.10
2022-11-17T18:21:15.058Z,18.90
2022-11-17T18:23:43.048Z,22.00
2022-11-17T18:26:31.396Z,21.30
2022-11-17T18:29:01.335Z,17.00
2022-11-17T18:31:31.714Z,13.90
2022-11-17T18:34:07.597Z,16.20
2022-11-17T18:36:35.261Z,16.50
2022-11-17T18:39:03.447Z,17.70
2022-11-17T18:41:33.365Z,16.20
2022-11-17T18:44:01.527Z,13.50
2022-11-17T18:46:30.874Z,15.30
2022-11-17T18:48:58.802Z,15.30
2022-11-17T18:51:28.790Z,12.40
2022-11-17T18:53:57.617Z,12.10
2022-11-17T18:56:27.017Z,13.40
2022-11-17T18:58:54.170Z,14.60
2022-11-17T19:01:24.078Z,17.70
2022-11-17T19:03:53.188Z,12.00
2022-11-17T19:06:22.902Z,18.70
2022-11-17T19:08:51.478Z,21.20
2022-11-17T19:11:21.298Z,22.30
2022-11-17T19:13:48.856Z,18.50
2022-11-17T19:16:21.350Z,30.40
2022-11-17T19:18:50.224Z,17.80
2022-11-17T19:21:27.821Z,15.50
2022-11-17T19:23:57.942Z,12.90
2022-11-17T19:26:27.389Z,10.90
2022-11-17T19:29:06.428Z,9.70
2022-11-17T19:31:36.087Z,8.00
2022-11-17T19:34:03.956Z,7.70
2022-11-17T19:36:33.564Z,8.20
2022-11-17T19:39:01.865Z,7.70
2022-11-17T19:41:34.588Z,8.10
2022-11-17T19:44:04.050Z,7.50
2022-11-17T19:46:32.004Z,8.50
2022-11-17T19:48:59.624Z,10.30
2022-11-17T19:51:31.350Z,12.00
2022-11-17T19:54:02.463Z,12.40
2022-11-17T19:56:29.930Z,10.60
2022-11-17T19:58:57.201Z,12.90
2022-11-17T20:01:26.659Z,14.00
2022-11-17T20:03:57.657Z,13.90
2022-11-17T20:06:27.853Z,14.70
2022-11-17T20:08:57.678Z,24.20
2022-11-17T20:11:27.585Z,23.60
2022-11-17T20:13:55.251Z,18.50
2022-11-17T20:16:26.864Z,24.90
2022-11-17T20:18:56.823Z,17.60
2022-11-17T20:21:25.512Z,14.90
2022-11-17T20:23:53.704Z,13.30
2022-11-17T20:26:26.721Z,14.30
2022-11-17T20:28:53.627Z,15.10
2022-11-17T20:31:25.701Z,17.70
2022-11-17T20:33:57.026Z,12.20
2022-11-17T20:36:24.598Z,16.40
2022-11-17T20:39:03.118Z,16.70
2022-11-17T20:41:30.131Z,23.00
2022-11-17T20:43:58.856Z,37.00
2022-11-17T20:46:26.315Z,34.80
2022-11-17T20:48:53.484Z,21.00
2022-11-17T20:51:23.285Z,13.40
2022-11-17T20:53:50.943Z,23.30
2022-11-17T20:56:17.995Z,24.00
2022-11-17T20:58:45.144Z,21.40
2022-11-17T21:01:14.690Z,19.50
2022-11-17T21:03:42.322Z,20.00
2022-11-17T21:06:09.885Z,14.80
2022-11-17T21:08:38.365Z,13.80
2022-11-17T21:11:08.390Z,12.70
2022-11-17T21:13:36.656Z,13.80
2022-11-17T21:16:12.064Z,15.20
2022-11-17T21:18:44.683Z,14.30
2022-11-17T21:21:12.140Z,10.30
2022-11-17T21:23:40.019Z,10.30
2022-11-17T21:26:08.289Z,9.60
2022-11-17T21:28:36.573Z,10.90
2022-11-17T21:31:06.775Z,13.90
2022-11-17T21:33:34.990Z,12.70
2022-11-17T21:36:03.858Z,17.30
2022-11-17T21:38:30.859Z,19.60
2022-11-17T21:41:05.579Z,25.00
2022-11-17T21:43:36.084Z,40.10
2022-11-17T21:46:12.168Z,32.70
2022-11-17T21:48:39.382Z,27.10
2022-11-17T21:51:12.933Z,32.00
2022-11-17T21:56:07.495Z,30.20
2022-11-17T21:58:34.854Z,32.30
2022-11-17T22:01:13.502Z,33.20
2022-11-17T22:03:41.852Z,36.00
2022-11-17T22:06:11.404Z,28.70
2022-11-17T22:08:41.142Z,21.20
2022-11-17T22:11:10.427Z,19.40
2022-11-17T22:13:38.144Z,20.10
2022-11-17T22:16:11.948Z,22.20
2022-11-17T22:18:40.018Z,28.00
2022-11-17T22:21:08.281Z,24.60
2022-11-17T22:23:35.677Z,34.00
2022-11-17T22:26:05.977Z,27.50
2022-11-17T22:28:33.086Z,27.10
2022-11-17T22:31:04.685Z,24.70
2022-11-17T22:33:31.530Z,23.00
2022-11-17T22:35:59.914Z,20.60
2022-11-17T22:38:28.926Z,19.70
2022-11-17T22:41:00.358Z,18.90
2022-11-17T22:43:27.715Z,18.60
2022-11-17T22:45:54.990Z,16.30
2022-11-17T22:48:22.631Z,17.30
2022-11-17T22:50:49.440Z,15.80
2022-11-17T22:53:16.118Z,17.40
2022-11-17T22:55:42.860Z,15.10
2022-11-17T22:58:10.113Z,15.80
2022-11-17T23:00:37.059Z,14.30
2022-11-17T23:03:03.980Z,13.40
2022-11-17T23:05:31.262Z,14.50
2022-11-17T23:07:58.105Z,13.50
2022-11-17T23:10:24.975Z,19.10
2022-11-17T23:12:51.794Z,25.70
2022-11-17T23:15:18.946Z,19.70
2022-11-17T23:17:45.999Z,21.60
2022-11-17T23:20:13.035Z,25.80
2022-11-17T23:22:39.889Z,23.10
2022-11-17T23:25:07.253Z,22.00
2022-11-17T23:27:33.987Z,19.10
2022-11-17T23:30:00.665Z,17.00
2022-11-17T23:32:27.371Z,17.90
2022-11-17T23:34:54.216Z,17.60
2022-11-17T23:37:20.970Z,23.80
2022-11-17T23:39:47.803Z,19.00
2022-11-17T23:42:14.485Z,17.40
2022-11-17T23:44:41.286Z,17.10
2022-11-17T23:47:08.062Z,15.30
2022-11-17T23:49:34.872Z,17.20
2022-11-17T23:52:01.666Z,17.70
2022-11-17T23:54:28.782Z,19.40
2022-11-17T23:56:55.714Z,18.60
2022-11-17T23:59:22.455Z,18.40
